Bookmark and Share
Track history (hours):
 

Oceanographic research ship Thomas G. Thompson (USA)

Ship's website: http://www.ocean.washington.edu/vessels/TGT/tgt.html

Detailed information on ship capabilities available from University of Delaware's Ocean Information Center.

More information available from US FCC via Universal Licensing System and Coast Guard Vessel Documentation Center.

Last reported at 2014-Apr-11 02:33 UTC. Time now 2014-Apr-24 11:22 UTC.
Position S 36°27' E 175°02'.
Warning: this ship's position is 13 days out of date.

Type: Other ship. MMSI: 366345000.

NotesDate/timePositionNaut miles runAvg speedWind from/ knotsBaromVisibWave heightAir tempDewpointWater temp
2014-Apr-11 02:33S 36°27' E 175°02'1111.1
2014-Apr-11 01:33S 36°37' E 174°58'1211.7
2014-Apr-11 00:33S 36°46' E 174°49'4 1.8
2014-Apr-10 22:08S 36°50' E 174°47'0 0.0
2014-Apr-10 16:32S 36°50' E 174°47'0 0.0
2014-Apr-10 15:14S 36°50' E 174°47'0 0.0
2014-Apr-10 14:26S 36°50' E 174°47'0 0.0
2014-Apr-10 13:26S 36°50' E 174°47'0 0.0
2014-Apr-10 12:26S 36°50' E 174°47'0 0.0
2014-Apr-10 11:20S 36°50' E 174°47'0 0.0
2014-Apr-10 10:32S 36°50' E 174°47'0 0.0
2014-Apr-10 09:20S 36°50' E 174°47'0 0.0
2014-Apr-10 06:26S 36°50' E 174°47'1 0.0
2014-Apr-09 00:09S 36°50' E 174°46'1 1.3
2014-Apr-08 23:33S 36°51' E 174°47'  
2014-Apr-05 15:30S 36°51' E 174°47'2 2.1
2014-Apr-05 14:27S 36°50' E 174°49'7 7.3
2014-Apr-05 13:28S 36°43' E 174°52'4 3.8
2014-Apr-05 12:32S 36°40' E 174°54'7 7.2
2014-Apr-05 11:34S 36°34' E 174°58'1010.1
2014-Apr-05 10:34S 36°24' E 174°60'28412.6
2014-Apr-04 12:00S 32°06' E 172°36'14512.1 150 / 141019.510.8 18.915.421.1
2014-Apr-04 00:00S 30°00' E 171°12'28712.0 120 / 161018.610.8 2.021.116.822.2
2014-Apr-03 00:00S 25°54' E 168°24'14512.0 090 / 171015.510.8 1.024.422.923.9
2014-Apr-02 12:00S 23°48' E 167°06'   080 / 201013.410.8 24.421.325.0

Dump ship's entire track history

sailing weather and tide predictions

Thomas G. Thompson — KTDQ — position and weather